createdAt,value
2022-08-07T00:03:05.422Z,100950.13
2022-08-07T00:08:10.002Z,100943.22
2022-08-07T00:13:24.074Z,100934.09
2022-08-07T00:18:29.025Z,100933.38
2022-08-07T00:23:32.445Z,100931.34
2022-08-07T00:28:34.755Z,100921.53
2022-08-07T00:33:47.652Z,100914.25
2022-08-07T00:38:49.274Z,100923.69
2022-08-07T00:44:01.433Z,100922.50
2022-08-07T00:49:04.472Z,100915.94
2022-08-07T00:54:05.963Z,100917.13
2022-08-07T00:59:07.594Z,100918.28
2022-08-07T01:04:09.226Z,100914.25
2022-08-07T01:09:12.139Z,100917.47
2022-08-07T01:14:36.928Z,100909.19
2022-08-07T01:19:39.971Z,100912.56
2022-08-07T01:24:47.534Z,100912.09
2022-08-07T01:29:50.631Z,100906.72
2022-08-07T01:34:52.672Z,100900.28
2022-08-07T01:39:54.601Z,100896.41
2022-08-07T01:44:59.097Z,100908.25
2022-08-07T01:50:01.717Z,100911.94
2022-08-07T01:55:04.952Z,100905.50
2022-08-07T02:00:13.070Z,100908.19
2022-08-07T02:05:43.055Z,100908.66
2022-08-07T02:10:42.821Z,100902.66
2022-08-07T02:15:44.901Z,100900.19
2022-08-07T02:20:51.963Z,100898.28
2022-08-07T02:26:26.679Z,100893.66
2022-08-07T02:31:29.244Z,100902.53
2022-08-07T02:36:33.707Z,100889.69
2022-08-07T02:41:37.460Z,100899.13
2022-08-07T02:46:46.609Z,100885.06
2022-08-07T02:51:52.234Z,100884.50
2022-08-07T02:56:55.960Z,100886.13
2022-08-07T03:01:58.108Z,100875.91
2022-08-07T03:07:07.264Z,100874.38
2022-08-07T03:12:21.981Z,100866.22
2022-08-07T03:17:25.998Z,100873.22
2022-08-07T03:22:29.557Z,100876.06
2022-08-07T03:27:58.774Z,100871.16
2022-08-07T03:32:59.221Z,100871.22
2022-08-07T03:38:04.773Z,100866.38
2022-08-07T03:43:13.687Z,100865.53
2022-08-07T03:48:16.400Z,100862.66
2022-08-07T03:53:17.736Z,100865.44
2022-08-07T03:59:04.805Z,100863.22
2022-08-07T04:03:49.629Z,100859.97
2022-08-07T04:08:56.059Z,100875.28
2022-08-07T04:14:10.681Z,100872.75
2022-08-07T04:19:21.245Z,100868.81
2022-08-07T04:24:43.011Z,100878.19
2022-08-07T04:29:58.371Z,100880.53
2022-08-07T04:35:01.916Z,100890.56
2022-08-07T04:40:06.021Z,100891.38
2022-08-07T04:45:08.543Z,100887.09
2022-08-07T04:50:14.518Z,100893.72
2022-08-07T04:58:10.441Z,100893.50
2022-08-07T05:01:30.772Z,100895.69
2022-08-07T05:06:43.513Z,100900.63
2022-08-07T05:11:57.348Z,100909.97
2022-08-07T05:17:11.936Z,100906.66
2022-08-07T05:22:26.771Z,100920.88
2022-08-07T05:28:02.770Z,100913.88
2022-08-07T05:32:54.262Z,100922.13
2022-08-07T05:38:09.116Z,100926.91
2022-08-07T05:43:11.630Z,100930.38
2022-08-07T05:48:15.256Z,100926.78
2022-08-07T05:54:13.344Z,100929.28
2022-08-07T05:58:41.024Z,100938.75
2022-08-07T06:03:58.507Z,100946.56
2022-08-07T06:09:04.652Z,100947.75
2022-08-07T06:14:12.292Z,100951.13
2022-08-07T06:19:58.063Z,100946.94
2022-08-07T06:24:57.716Z,100951.59
2022-08-07T06:30:00.817Z,100953.88
2022-08-07T06:35:02.519Z,100948.19
2022-08-07T06:40:20.613Z,100938.03
2022-08-07T06:45:24.828Z,100940.81
2022-08-07T06:50:27.580Z,100936.63
2022-08-07T06:55:47.690Z,100929.59
2022-08-07T07:00:56.011Z,100933.00
2022-08-07T07:06:02.462Z,100934.25
2022-08-07T07:11:13.560Z,100928.47
2022-08-07T07:16:34.362Z,100936.06
2022-08-07T07:22:05.289Z,100925.91
2022-08-07T07:27:10.696Z,100925.88
2022-08-07T07:32:14.562Z,100931.59
2022-08-07T07:37:44.286Z,100930.78
2022-08-07T07:42:41.101Z,100922.63
2022-08-07T07:47:52.560Z,100916.94
2022-08-07T07:52:56.642Z,100911.22
2022-08-07T07:57:58.667Z,100908.75
2022-08-07T08:03:08.461Z,100907.78
2022-08-07T08:08:32.395Z,100901.50
2022-08-07T08:13:36.813Z,100893.84
2022-08-07T08:18:57.241Z,100904.22
2022-08-07T08:24:18.776Z,100897.75
2022-08-07T08:29:55.533Z,100885.28
2022-08-07T08:34:58.632Z,100885.25
2022-08-07T08:40:01.810Z,100871.47
2022-08-07T08:45:13.188Z,100880.09
2022-08-07T08:50:34.899Z,100877.69
2022-08-07T08:55:58.478Z,100873.22
2022-08-07T09:01:14.595Z,100866.81
2022-08-07T09:06:40.403Z,100866.59
2022-08-07T09:12:19.826Z,100871.41
2022-08-07T09:17:59.021Z,100861.47
2022-08-07T09:24:31.401Z,100860.94
2022-08-07T09:30:05.008Z,100843.34
2022-08-07T09:34:22.564Z,100833.28
2022-08-07T09:39:53.866Z,100823.41
2022-08-07T09:47:27.561Z,100826.09
2022-08-07T09:50:36.537Z,100815.44
2022-08-07T09:56:33.819Z,100809.78
2022-08-07T10:02:00.299Z,100798.50
2022-08-07T10:07:39.718Z,100787.03
2022-08-07T10:13:05.139Z,100786.75
2022-08-07T10:18:49.791Z,100786.31
2022-08-07T10:24:10.947Z,100782.09
2022-08-07T10:29:43.253Z,100778.53
2022-08-07T10:35:56.357Z,100765.03
2022-08-07T10:41:51.651Z,100758.00
2022-08-07T10:46:55.496Z,100747.53
2022-08-07T10:52:13.661Z,100744.03
2022-08-07T10:57:38.445Z,100729.63
2022-08-07T11:02:53.919Z,100730.88
2022-08-07T11:08:18.300Z,100734.06
2022-08-07T11:14:43.555Z,100716.69
2022-08-07T11:19:21.755Z,100722.88
2022-08-07T11:24:48.836Z,100714.38
2022-08-07T11:30:17.947Z,100711.53
2022-08-07T11:35:29.971Z,100702.03
2022-08-07T11:40:51.592Z,100694.00
2022-08-07T11:46:27.210Z,100687.69
2022-08-07T11:51:54.424Z,100677.41
2022-08-07T11:58:00.426Z,100680.50
2022-08-07T12:03:44.497Z,100671.91
2022-08-07T12:08:56.002Z,100676.47
2022-08-07T12:14:08.481Z,100672.78
2022-08-07T12:19:35.956Z,100649.91
2022-08-07T12:26:05.652Z,100654.13
2022-08-07T12:30:46.996Z,100653.16
2022-08-07T12:35:58.008Z,100651.03
2022-08-07T12:41:02.582Z,100642.13
2022-08-07T12:46:26.200Z,100633.84
2022-08-07T12:52:11.862Z,100632.25
2022-08-07T12:57:10.713Z,100628.50
2022-08-07T13:02:35.667Z,100627.31
2022-08-07T13:08:18.887Z,100615.91
2022-08-07T13:13:47.218Z,100604.25
2022-08-07T13:19:22.045Z,100612.22
2022-08-07T13:24:52.522Z,100598.75
2022-08-07T13:30:03.601Z,100605.38
2022-08-07T13:35:11.602Z,100600.78
2022-08-07T13:40:42.853Z,100596.28
2022-08-07T13:46:11.533Z,100579.88
2022-08-07T13:51:27.773Z,100585.00
2022-08-07T13:56:36.342Z,100580.19
2022-08-07T14:01:51.044Z,100575.81
2022-08-07T14:07:05.863Z,100567.59
2022-08-07T14:12:28.110Z,100576.16
2022-08-07T14:18:13.665Z,100564.16
2022-08-07T14:23:02.797Z,100571.38
2022-08-07T14:28:13.387Z,100564.03
2022-08-07T14:33:17.033Z,100565.44
2022-08-07T14:38:31.422Z,100554.34
2022-08-07T14:43:57.699Z,100548.41
2022-08-07T14:49:55.915Z,100545.19
2022-08-07T14:54:30.943Z,100537.47
2022-08-07T15:00:05.261Z,100545.94
2022-08-07T15:05:01.713Z,100536.13
2022-08-07T15:15:38.903Z,100537.34
2022-08-07T15:20:55.496Z,100525.59
2022-08-07T15:25:59.404Z,100526.91
2022-08-07T15:31:05.774Z,100523.19
2022-08-07T15:36:08.553Z,100517.13
2022-08-07T15:41:23.748Z,100508.19
2022-08-07T15:57:00.728Z,100501.16
2022-08-07T16:02:04.279Z,100492.66
2022-08-07T16:08:32.327Z,100495.63
2022-08-07T16:12:40.562Z,100490.59
2022-08-07T16:18:14.019Z,100486.88
2022-08-07T16:23:58.773Z,100492.44
2022-08-07T16:30:07.581Z,100494.09
2022-08-07T16:34:48.823Z,100486.13
2022-08-07T16:40:23.402Z,100488.69
2022-08-07T16:46:34.710Z,100488.38
2022-08-07T16:51:54.111Z,100484.03
2022-08-07T16:58:02.061Z,100482.44
2022-08-07T17:03:17.215Z,100483.31
2022-08-07T17:09:04.404Z,100479.81
2022-08-07T17:14:18.691Z,100480.31
2022-08-07T17:20:01.832Z,100479.31
2022-08-07T17:25:15.590Z,100467.84
2022-08-07T17:30:20.229Z,100477.47
2022-08-07T17:35:54.713Z,100483.81
2022-08-07T17:42:04.401Z,100486.22
2022-08-07T17:47:06.072Z,100486.47
2022-08-07T17:52:17.978Z,100492.56
2022-08-07T17:57:58.560Z,100493.25
2022-08-07T18:04:07.203Z,100493.34
2022-08-07T18:09:16.072Z,100490.63
2022-08-07T18:14:29.144Z,100490.25
2022-08-07T18:21:11.946Z,100493.47
2022-08-07T18:25:24.131Z,100510.91
2022-08-07T18:30:43.367Z,100499.41
2022-08-07T18:36:05.978Z,100516.38
2022-08-07T18:41:20.742Z,100523.13
2022-08-07T18:46:43.021Z,100528.38
2022-08-07T18:52:35.097Z,100531.53
2022-08-07T18:57:59.479Z,100544.31
2022-08-07T19:03:16.114Z,100535.47
2022-08-07T19:08:26.401Z,100533.81
2022-08-07T19:13:50.282Z,100545.31
2022-08-07T19:19:03.041Z,100549.47
2022-08-07T19:24:13.369Z,100558.44
2022-08-07T19:31:06.122Z,100570.53
2022-08-07T19:35:14.062Z,100580.16
2022-08-07T19:40:18.510Z,100573.00
2022-08-07T19:46:04.698Z,100588.00
2022-08-07T19:51:01.718Z,100587.94
2022-08-07T19:56:13.650Z,100600.66
2022-08-07T20:01:52.724Z,100602.72
2022-08-07T20:06:54.789Z,100605.78
2022-08-07T20:12:22.849Z,100593.22
2022-08-07T20:17:21.375Z,100602.78
2022-08-07T20:22:29.417Z,100611.28
2022-08-07T20:27:46.047Z,100606.47
2022-08-07T20:32:50.237Z,100623.97
2022-08-07T20:37:58.434Z,100616.44
2022-08-07T20:43:14.845Z,100612.97
2022-08-07T20:48:29.570Z,100622.16
2022-08-07T20:54:03.667Z,100620.88
2022-08-07T20:58:58.576Z,100621.78
2022-08-07T21:04:22.162Z,100616.31
2022-08-07T21:09:52.096Z,100626.47
2022-08-07T21:14:55.582Z,100618.31
2022-08-07T21:20:05.263Z,100612.00
2022-08-07T21:25:42.438Z,100614.63
2022-08-07T21:31:49.276Z,100609.38
2022-08-07T21:37:10.239Z,100610.16
2022-08-07T21:47:56.182Z,100607.97
2022-08-07T21:53:16.146Z,100612.66
2022-08-07T21:58:45.959Z,100624.25
2022-08-07T22:04:02.699Z,100624.16
2022-08-07T22:09:12.304Z,100633.81
2022-08-07T22:14:15.069Z,100626.06
2022-08-07T22:19:34.829Z,100628.91
2022-08-07T22:24:49.811Z,100625.91
2022-08-07T22:29:58.063Z,100632.00
2022-08-07T22:35:01.417Z,100626.19
2022-08-07T22:40:42.997Z,100632.00
2022-08-07T22:46:04.577Z,100635.28
2022-08-07T22:51:53.410Z,100647.28
2022-08-07T22:57:29.286Z,100645.00
2022-08-07T23:02:41.536Z,100648.28
2022-08-07T23:08:24.354Z,100646.63
2022-08-07T23:14:15.597Z,100641.38
2022-08-07T23:19:58.577Z,100639.09
2022-08-07T23:25:35.487Z,100644.59
2022-08-07T23:31:07.123Z,100648.88
2022-08-07T23:36:43.179Z,100641.69
2022-08-07T23:42:05.056Z,100645.44
2022-08-07T23:47:26.213Z,100636.63
2022-08-07T23:53:05.642Z,100637.16
2022-08-07T23:58:18.717Z,100640.22
